createdAt,value
2018-05-27T00:01:54.656Z,82.87
2018-05-27T00:04:22.155Z,82.91
2018-05-27T00:06:49.616Z,83.40
2018-05-27T00:09:17.099Z,84.11
2018-05-27T00:11:44.549Z,84.36
2018-05-27T00:14:12.312Z,84.10
2018-05-27T00:16:39.759Z,83.96
2018-05-27T00:19:07.217Z,84.10
2018-05-27T00:21:34.696Z,84.13
2018-05-27T00:24:02.156Z,86.70
2018-05-27T00:26:29.631Z,85.31
2018-05-27T00:28:57.095Z,84.96
2018-05-27T00:31:24.803Z,85.51
2018-05-27T00:33:52.267Z,85.32
2018-05-27T00:36:19.744Z,85.82
2018-05-27T00:38:47.243Z,85.40
2018-05-27T00:41:14.700Z,85.38
2018-05-27T00:43:42.209Z,85.84
2018-05-27T00:46:09.663Z,86.41
2018-05-27T00:48:37.149Z,86.05
2018-05-27T00:51:04.631Z,86.80
2018-05-27T00:53:43.915Z,87.69
2018-05-27T00:56:11.368Z,87.14
2018-05-27T00:58:38.842Z,87.30
2018-05-27T01:01:06.315Z,86.53
2018-05-27T01:03:33.788Z,87.10
2018-05-27T01:06:01.264Z,86.95
2018-05-27T01:08:28.715Z,86.94
2018-05-27T01:10:56.208Z,85.75
2018-05-27T01:13:23.667Z,85.52
2018-05-27T01:15:51.128Z,85.98
2018-05-27T01:18:18.661Z,85.43
2018-05-27T01:20:46.126Z,87.23
2018-05-27T01:23:13.640Z,86.16
2018-05-27T01:25:41.115Z,86.97
2018-05-27T01:28:08.599Z,87.12
2018-05-27T01:30:36.080Z,88.76
2018-05-27T01:33:03.547Z,87.70
2018-05-27T01:35:31.164Z,89.66
2018-05-27T01:37:58.617Z,88.73
2018-05-27T01:40:26.111Z,88.30
2018-05-27T01:42:53.572Z,89.72
2018-05-27T01:45:21.287Z,90.39
2018-05-27T01:47:48.810Z,90.00
2018-05-27T01:50:16.264Z,88.98
2018-05-27T01:52:43.741Z,87.80
2018-05-27T01:55:11.195Z,87.83
2018-05-27T01:57:38.697Z,88.13
2018-05-27T02:00:06.151Z,86.83
2018-05-27T02:02:33.911Z,86.18
2018-05-27T02:05:01.369Z,87.04
2018-05-27T02:07:28.874Z,87.13
2018-05-27T02:09:56.384Z,86.78
2018-05-27T02:12:23.843Z,86.25
2018-05-27T02:14:51.316Z,86.36
2018-05-27T02:17:18.768Z,87.17
2018-05-27T02:19:46.681Z,86.68
2018-05-27T02:22:14.149Z,87.33
2018-05-27T02:24:41.615Z,88.47
2018-05-27T02:27:09.091Z,88.93
2018-05-27T02:29:36.551Z,89.89
2018-05-27T02:32:04.043Z,89.52
2018-05-27T02:34:31.495Z,88.29
2018-05-27T02:36:59.204Z,87.67
2018-05-27T02:39:26.664Z,87.93
2018-05-27T02:41:54.116Z,88.73
2018-05-27T02:44:21.608Z,88.11
2018-05-27T02:46:49.067Z,87.50
2018-05-27T02:49:16.563Z,86.47
2018-05-27T02:51:44.021Z,87.00
2018-05-27T02:54:12.016Z,88.69
2018-05-27T02:56:39.471Z,88.65
2018-05-27T02:59:06.928Z,88.55
2018-05-27T03:01:34.415Z,88.09
2018-05-27T03:04:01.871Z,88.33
2018-05-27T03:06:29.348Z,88.40
2018-05-27T03:08:56.807Z,88.65
2018-05-27T03:11:24.476Z,89.68
2018-05-27T03:13:51.942Z,89.25
2018-05-27T03:16:19.402Z,88.31
2018-05-27T03:18:46.880Z,88.47
2018-05-27T03:21:14.331Z,88.21
2018-05-27T03:23:41.807Z,89.29
2018-05-27T03:26:09.264Z,90.89
2018-05-27T03:28:36.893Z,90.58
2018-05-27T03:31:04.364Z,89.48
2018-05-27T03:33:31.823Z,88.41
2018-05-27T03:35:59.295Z,88.60
2018-05-27T03:38:26.771Z,88.74
2018-05-27T03:40:54.247Z,89.64
2018-05-27T03:43:21.715Z,89.09
2018-05-27T03:45:49.352Z,89.54
2018-05-27T03:48:16.806Z,88.88
2018-05-27T03:50:44.283Z,89.25
2018-05-27T03:53:11.755Z,89.75
2018-05-27T03:55:39.212Z,89.67
2018-05-27T03:58:06.688Z,89.92
2018-05-27T04:00:34.152Z,90.38
2018-05-27T04:03:01.746Z,90.30
2018-05-27T04:05:42.043Z,90.13
2018-05-27T04:08:21.475Z,89.38
2018-05-27T04:10:48.939Z,89.05
2018-05-27T04:13:16.391Z,88.97
2018-05-27T04:15:43.867Z,89.02
2018-05-27T04:18:11.320Z,88.86
2018-05-27T04:20:38.799Z,88.85
2018-05-27T04:23:06.256Z,88.49
2018-05-27T04:25:33.960Z,88.05
2018-05-27T04:28:01.421Z,88.98
2018-05-27T04:30:28.884Z,89.02
2018-05-27T04:32:56.368Z,88.13
2018-05-27T04:35:23.824Z,88.83
2018-05-27T04:37:51.303Z,89.32
2018-05-27T04:40:18.760Z,89.31
2018-05-27T04:42:46.247Z,89.17
2018-05-27T04:45:13.716Z,88.52
2018-05-27T04:47:41.193Z,88.40
2018-05-27T04:50:08.672Z,88.51
2018-05-27T04:52:36.140Z,88.55
2018-05-27T04:55:03.619Z,88.16
2018-05-27T04:57:31.079Z,88.16
2018-05-27T04:59:58.663Z,88.52
2018-05-27T05:02:26.115Z,88.36
2018-05-27T05:04:53.576Z,87.35
2018-05-27T05:07:21.068Z,87.43
2018-05-27T05:09:48.571Z,86.06
2018-05-27T05:12:16.060Z,83.55
2018-05-27T05:14:43.524Z,84.47
2018-05-27T05:17:11.286Z,84.40
2018-05-27T05:19:38.740Z,81.98
2018-05-27T05:22:06.222Z,80.41
2018-05-27T05:24:33.683Z,78.63
2018-05-27T05:27:01.792Z,76.87
2018-05-27T05:29:29.271Z,75.58
2018-05-27T05:31:56.727Z,73.56
2018-05-27T05:34:24.496Z,74.16
2018-05-27T05:36:51.956Z,72.92
2018-05-27T05:39:19.419Z,71.24
2018-05-27T05:41:46.898Z,71.30
2018-05-27T05:44:14.355Z,70.37
2018-05-27T05:46:41.847Z,69.86
2018-05-27T05:49:09.304Z,69.67
2018-05-27T05:51:36.964Z,68.83
2018-05-27T05:54:04.460Z,68.49
2018-05-27T05:56:31.943Z,68.31
2018-05-27T05:58:59.424Z,69.27
2018-05-27T06:01:26.876Z,70.26
2018-05-27T06:03:54.431Z,68.82
2018-05-27T06:06:21.901Z,68.71
2018-05-27T06:08:49.617Z,68.68
2018-05-27T06:11:17.383Z,68.02
2018-05-27T06:13:44.835Z,67.00
2018-05-27T06:16:12.316Z,67.65
2018-05-27T06:18:39.775Z,66.68
2018-05-27T06:21:07.252Z,64.92
2018-05-27T06:23:34.794Z,65.45
2018-05-27T06:26:02.641Z,65.81
2018-05-27T06:28:30.107Z,65.04
2018-05-27T06:30:57.563Z,64.86
2018-05-27T06:33:25.040Z,64.27
2018-05-27T06:35:52.544Z,64.31
2018-05-27T06:38:20.012Z,62.61
2018-05-27T06:40:47.467Z,61.52
2018-05-27T06:43:15.136Z,60.99
2018-05-27T06:45:42.618Z,62.01
2018-05-27T06:48:10.126Z,62.99
2018-05-27T06:50:37.612Z,62.70
2018-05-27T06:53:05.060Z,62.44
2018-05-27T06:55:32.532Z,60.53
2018-05-27T06:58:00.062Z,60.25
2018-05-27T07:00:27.619Z,60.16
2018-05-27T07:02:55.197Z,60.95
2018-05-27T07:05:22.651Z,59.69
2018-05-27T07:07:50.138Z,59.95
2018-05-27T07:10:17.588Z,58.72
2018-05-27T07:12:45.056Z,57.69
2018-05-27T07:15:12.509Z,58.74
2018-05-27T07:17:40.011Z,55.43
2018-05-27T07:20:07.455Z,55.71
2018-05-27T07:22:34.904Z,55.98
2018-05-27T07:25:02.383Z,56.58
2018-05-27T07:27:29.829Z,56.16
2018-05-27T07:29:57.306Z,56.44
2018-05-27T07:32:24.751Z,56.31
2018-05-27T07:34:52.296Z,56.13
2018-05-27T07:37:19.744Z,56.19
2018-05-27T07:39:47.210Z,55.78
2018-05-27T07:42:14.687Z,56.13
2018-05-27T07:44:42.139Z,56.22
2018-05-27T07:47:09.624Z,57.03
2018-05-27T07:49:37.073Z,56.12
2018-05-27T07:52:04.592Z,55.88
2018-05-27T07:54:32.042Z,56.10
2018-05-27T07:56:59.503Z,57.00
2018-05-27T07:59:27.003Z,56.55
2018-05-27T08:01:54.528Z,56.59
2018-05-27T08:04:22.035Z,56.54
2018-05-27T08:06:49.484Z,57.89
2018-05-27T08:09:17.183Z,56.98
2018-05-27T08:11:44.640Z,57.06
2018-05-27T08:14:12.091Z,56.65
2018-05-27T08:16:39.559Z,56.48
2018-05-27T08:19:07.004Z,56.41
2018-05-27T08:21:34.468Z,56.88
2018-05-27T08:24:01.960Z,57.12
2018-05-27T08:26:29.691Z,56.38
2018-05-27T08:28:57.141Z,57.26
2018-05-27T08:31:24.604Z,57.15
2018-05-27T08:33:52.079Z,56.96
2018-05-27T08:36:19.544Z,55.98
2018-05-27T08:38:47.040Z,55.35
2018-05-27T08:41:14.495Z,55.04
2018-05-27T08:43:42.168Z,54.29
2018-05-27T08:46:09.619Z,54.46
2018-05-27T08:48:37.196Z,54.41
2018-05-27T08:51:04.680Z,55.70
2018-05-27T08:53:32.140Z,54.64
2018-05-27T08:55:59.611Z,55.65
2018-05-27T08:58:27.098Z,54.25
2018-05-27T09:00:54.775Z,54.26
2018-05-27T09:03:22.223Z,53.49
2018-05-27T09:05:49.688Z,52.56
2018-05-27T09:08:17.163Z,54.40
2018-05-27T09:10:44.615Z,53.95
2018-05-27T09:13:12.135Z,52.26
2018-05-27T09:15:39.588Z,51.84
2018-05-27T09:18:07.224Z,51.69
2018-05-27T09:20:34.676Z,52.28
2018-05-27T09:23:02.143Z,52.12
2018-05-27T09:25:29.622Z,52.43
2018-05-27T09:27:57.082Z,51.73
2018-05-27T09:30:24.568Z,52.69
2018-05-27T09:32:52.018Z,53.48
2018-05-27T09:35:19.580Z,50.60
2018-05-27T09:37:47.047Z,50.81
2018-05-27T09:40:14.507Z,51.23
2018-05-27T09:42:41.984Z,50.77
2018-05-27T09:45:09.452Z,52.23
2018-05-27T09:47:36.955Z,52.75
2018-05-27T09:50:04.395Z,52.37
2018-05-27T09:52:32.147Z,54.24
2018-05-27T09:54:59.613Z,52.42
2018-05-27T09:57:27.060Z,52.96
2018-05-27T09:59:54.592Z,52.99
2018-05-27T10:02:21.993Z,52.62
2018-05-27T10:04:49.459Z,51.37
2018-05-27T10:07:16.946Z,51.59
2018-05-27T10:09:44.748Z,52.14
2018-05-27T10:12:12.196Z,51.49
2018-05-27T10:14:39.662Z,52.06
2018-05-27T10:17:07.136Z,50.59
2018-05-27T10:19:34.586Z,51.36
2018-05-27T10:22:02.055Z,50.91
2018-05-27T10:24:29.516Z,50.76
2018-05-27T10:26:57.152Z,51.44
2018-05-27T10:29:24.600Z,51.89
2018-05-27T10:31:52.070Z,51.58
2018-05-27T10:34:19.539Z,51.08
2018-05-27T10:36:47.070Z,51.75
2018-05-27T10:39:14.543Z,52.48
2018-05-27T10:41:42.016Z,52.73
2018-05-27T10:44:09.628Z,51.12
2018-05-27T10:46:37.097Z,54.36
2018-05-27T10:49:04.556Z,53.77
2018-05-27T10:51:32.024Z,52.97
2018-05-27T10:53:59.471Z,53.56
2018-05-27T10:56:26.939Z,55.34
2018-05-27T10:58:54.392Z,52.76
2018-05-27T11:01:21.875Z,52.21
2018-05-27T11:03:49.343Z,51.94
2018-05-27T11:06:16.824Z,52.83
2018-05-27T11:08:44.298Z,52.30
2018-05-27T11:11:11.759Z,51.28
2018-05-27T11:13:39.235Z,52.69
2018-05-27T11:16:06.711Z,52.51
2018-05-27T11:18:34.155Z,53.50
2018-05-27T11:21:01.635Z,53.15
2018-05-27T11:23:29.084Z,53.48
2018-05-27T11:25:56.656Z,52.94
2018-05-27T11:28:24.128Z,52.25
2018-05-27T11:30:51.579Z,51.42
2018-05-27T11:33:19.052Z,52.20
2018-05-27T11:35:46.509Z,52.31
2018-05-27T11:38:13.999Z,50.29
2018-05-27T11:40:41.460Z,49.93
2018-05-27T11:43:08.908Z,51.01
2018-05-27T11:45:36.376Z,53.20
2018-05-27T11:48:03.836Z,53.43
2018-05-27T11:50:31.427Z,51.73
2018-05-27T11:52:58.884Z,51.10
2018-05-27T11:55:26.335Z,51.30
2018-05-27T11:57:53.804Z,49.93
2018-05-27T12:00:21.255Z,49.82
2018-05-27T12:02:49.064Z,49.86
2018-05-27T12:05:16.524Z,49.88
2018-05-27T12:07:43.987Z,49.64
2018-05-27T12:10:11.452Z,49.11
2018-05-27T12:12:38.915Z,49.26
2018-05-27T12:15:06.474Z,49.23
2018-05-27T12:17:33.969Z,46.74
2018-05-27T12:20:01.452Z,45.67
2018-05-27T12:22:28.908Z,44.56
2018-05-27T12:24:56.361Z,46.05
2018-05-27T12:27:23.832Z,45.54
2018-05-27T12:29:51.297Z,45.28
2018-05-27T12:32:18.772Z,45.61
2018-05-27T12:34:46.219Z,47.40
2018-05-27T12:37:13.736Z,48.22
2018-05-27T12:39:41.187Z,49.09
2018-05-27T12:42:08.643Z,50.20
2018-05-27T12:44:36.134Z,50.99
2018-05-27T12:47:03.591Z,48.04
2018-05-27T12:49:31.060Z,49.29
2018-05-27T12:51:58.548Z,48.04
2018-05-27T12:54:26.144Z,47.18
2018-05-27T12:56:53.623Z,45.01
2018-05-27T12:59:21.080Z,44.45
2018-05-27T13:01:48.551Z,45.47
2018-05-27T13:04:16.024Z,43.45
2018-05-27T13:06:43.491Z,41.19
2018-05-27T13:09:10.935Z,42.35
2018-05-27T13:11:38.453Z,43.88
2018-05-27T13:14:05.903Z,43.96
2018-05-27T13:16:33.390Z,43.30
2018-05-27T13:19:00.869Z,43.01
2018-05-27T13:21:28.311Z,43.98
2018-05-27T13:23:55.803Z,43.08
2018-05-27T13:26:23.251Z,43.13
2018-05-27T13:28:50.723Z,44.31
2018-05-27T13:31:18.172Z,43.37
2018-05-27T13:33:45.621Z,43.05
2018-05-27T13:36:13.088Z,44.36
2018-05-27T13:38:40.539Z,44.74
2018-05-27T13:41:08.007Z,44.40
2018-05-27T13:43:35.471Z,45.49
2018-05-27T13:46:02.963Z,46.43
2018-05-27T13:48:30.408Z,46.76
2018-05-27T13:50:57.874Z,46.73
2018-05-27T13:53:25.345Z,47.35
2018-05-27T13:55:52.811Z,46.50
2018-05-27T13:58:20.290Z,47.21
2018-05-27T14:00:47.780Z,46.96
2018-05-27T14:03:15.395Z,48.94
2018-05-27T14:05:42.851Z,45.17
2018-05-27T14:08:10.304Z,46.31
2018-05-27T14:10:37.780Z,46.63
2018-05-27T14:13:05.243Z,44.57
2018-05-27T14:15:32.711Z,45.00
2018-05-27T14:18:00.159Z,46.80
2018-05-27T14:20:27.788Z,48.49
2018-05-27T14:22:55.248Z,49.62
2018-05-27T14:25:22.701Z,49.05
2018-05-27T14:27:50.174Z,49.85
2018-05-27T14:30:17.623Z,49.16
2018-05-27T14:32:45.131Z,50.83
2018-05-27T14:35:12.603Z,52.09
2018-05-27T14:37:40.484Z,52.38
2018-05-27T14:40:08.011Z,54.00
2018-05-27T14:42:35.455Z,55.79
2018-05-27T14:45:02.928Z,54.36
2018-05-27T14:47:30.372Z,54.90
2018-05-27T14:49:57.851Z,54.69
2018-05-27T14:52:25.304Z,57.15
2018-05-27T14:54:52.791Z,58.33
2018-05-27T14:57:20.241Z,59.83
2018-05-27T14:59:47.693Z,60.63
2018-05-27T15:02:15.168Z,60.19
2018-05-27T15:04:42.628Z,61.90
2018-05-27T15:07:10.106Z,64.68
2018-05-27T15:09:37.560Z,64.85
2018-05-27T15:12:05.386Z,65.23
2018-05-27T15:14:32.868Z,64.17
2018-05-27T15:17:00.323Z,61.69
2018-05-27T15:19:27.799Z,67.24
2018-05-27T15:21:55.244Z,66.49
2018-05-27T15:24:22.728Z,65.59
2018-05-27T15:26:50.190Z,67.02
2018-05-27T15:29:17.671Z,66.28
2018-05-27T15:31:45.156Z,65.30
2018-05-27T15:34:12.615Z,62.52
2018-05-27T15:36:40.088Z,60.85
2018-05-27T15:39:07.554Z,61.02
2018-05-27T15:41:35.028Z,61.05
2018-05-27T15:44:02.476Z,61.67
2018-05-27T15:46:30.099Z,62.55
2018-05-27T15:48:57.556Z,62.28
2018-05-27T15:51:25.012Z,62.42
2018-05-27T15:53:52.533Z,65.84
2018-05-27T15:56:19.955Z,68.09
2018-05-27T15:58:47.428Z,69.00
2018-05-27T16:01:14.875Z,69.33
2018-05-27T16:03:42.363Z,67.81
2018-05-27T16:06:09.812Z,67.79
2018-05-27T16:08:37.284Z,71.60
2018-05-27T16:11:04.761Z,71.65
2018-05-27T16:13:32.212Z,71.14
2018-05-27T16:15:59.691Z,73.04
2018-05-27T16:18:27.135Z,71.77
2018-05-27T16:20:55.042Z,72.07
2018-05-27T16:23:22.488Z,71.21
2018-05-27T16:25:49.959Z,70.33
2018-05-27T16:28:17.428Z,70.62
2018-05-27T16:30:44.899Z,70.55
2018-05-27T16:33:12.376Z,70.20
2018-05-27T16:35:39.833Z,68.75
2018-05-27T16:38:07.324Z,67.56
2018-05-27T16:40:34.783Z,67.75
2018-05-27T16:43:02.233Z,68.37
2018-05-27T16:45:29.751Z,70.35
2018-05-27T16:47:57.220Z,71.02
2018-05-27T16:50:24.683Z,71.99
2018-05-27T16:52:52.137Z,71.94
2018-05-27T16:55:19.641Z,72.38
2018-05-27T16:57:47.095Z,73.43
2018-05-27T17:00:14.554Z,74.12
2018-05-27T17:02:42.036Z,74.48
2018-05-27T17:05:09.495Z,73.21
2018-05-27T17:07:36.988Z,74.30
2018-05-27T17:10:04.440Z,72.72
2018-05-27T17:12:31.915Z,71.00
2018-05-27T17:14:59.383Z,71.81
2018-05-27T17:17:26.828Z,73.07
2018-05-27T17:19:54.311Z,73.09
2018-05-27T17:22:21.779Z,72.65
2018-05-27T17:24:49.256Z,72.78
2018-05-27T17:27:16.733Z,72.05
2018-05-27T17:29:44.312Z,71.28
2018-05-27T17:32:11.772Z,72.40
2018-05-27T17:34:39.227Z,70.24
2018-05-27T17:37:06.712Z,69.49
2018-05-27T17:39:34.169Z,71.08
2018-05-27T17:42:01.651Z,70.94
2018-05-27T17:44:29.104Z,71.76
2018-05-27T17:46:56.676Z,72.85
2018-05-27T17:49:24.124Z,72.77
2018-05-27T17:51:51.575Z,72.44
2018-05-27T17:54:19.132Z,71.16
2018-05-27T17:56:46.561Z,71.59
2018-05-27T17:59:14.042Z,71.36
2018-05-27T18:01:41.509Z,74.18
2018-05-27T18:04:09.050Z,74.50
2018-05-27T18:06:36.479Z,74.27
2018-05-27T18:09:03.930Z,75.43
2018-05-27T18:11:31.461Z,76.69
2018-05-27T18:13:58.926Z,78.44
2018-05-27T18:16:26.406Z,77.97
2018-05-27T18:18:53.856Z,77.34
2018-05-27T18:21:21.344Z,78.98
2018-05-27T18:23:48.819Z,79.11
2018-05-27T18:26:16.315Z,77.47
2018-05-27T18:28:43.810Z,76.20
2018-05-27T18:31:11.321Z,77.57
2018-05-27T18:33:38.803Z,77.84
2018-05-27T18:36:06.247Z,77.06
2018-05-27T18:38:33.756Z,76.98
2018-05-27T18:41:01.215Z,76.81
2018-05-27T18:43:28.664Z,75.74
2018-05-27T18:45:56.181Z,76.22
2018-05-27T18:48:23.644Z,76.37
2018-05-27T18:50:51.213Z,76.91
2018-05-27T18:53:18.660Z,76.48
2018-05-27T18:55:46.175Z,75.59
2018-05-27T18:58:13.636Z,74.33
2018-05-27T19:00:41.112Z,74.34
2018-05-27T19:03:08.599Z,73.67
2018-05-27T19:05:36.051Z,72.65
2018-05-27T19:08:03.515Z,73.97
2018-05-27T19:10:31.026Z,73.66
2018-05-27T19:12:58.823Z,74.73
2018-05-27T19:15:26.232Z,73.37
2018-05-27T19:17:53.685Z,73.83
2018-05-27T19:20:21.168Z,74.79
2018-05-27T19:22:48.655Z,72.97
2018-05-27T19:25:16.142Z,74.22
2018-05-27T19:27:43.590Z,72.38
2018-05-27T19:30:11.347Z,72.55
2018-05-27T19:32:38.825Z,73.79
2018-05-27T19:35:07.104Z,73.34
2018-05-27T19:37:34.592Z,74.18
2018-05-27T19:40:02.609Z,75.61
2018-05-27T19:42:30.088Z,76.51
2018-05-27T19:44:58.303Z,77.15
2018-05-27T19:47:25.784Z,76.97
2018-05-27T19:49:53.239Z,77.95
2018-05-27T19:52:20.699Z,78.54
2018-05-27T19:54:48.202Z,80.23
2018-05-27T19:57:15.652Z,80.05
2018-05-27T19:59:43.144Z,79.47
2018-05-27T20:02:10.623Z,79.07
2018-05-27T20:04:38.489Z,79.44
2018-05-27T20:07:05.959Z,79.32
2018-05-27T20:09:33.420Z,79.38
2018-05-27T20:12:00.925Z,79.52
2018-05-27T20:14:28.415Z,78.84
2018-05-27T20:16:55.909Z,78.76
2018-05-27T20:19:23.375Z,79.26
2018-05-27T20:21:51.101Z,81.78
2018-05-27T20:24:18.603Z,81.36
2018-05-27T20:26:46.079Z,80.91
2018-05-27T20:29:13.551Z,80.86
2018-05-27T20:31:40.999Z,80.63
2018-05-27T20:34:08.486Z,80.95
2018-05-27T20:36:35.940Z,80.58
2018-05-27T20:39:03.439Z,80.63
2018-05-27T20:41:30.904Z,80.43
2018-05-27T20:43:58.367Z,80.29
2018-05-27T20:46:25.842Z,80.29
2018-05-27T20:48:53.296Z,80.49
2018-05-27T20:51:20.775Z,80.56
2018-05-27T20:53:48.236Z,79.57
2018-05-27T20:56:15.819Z,77.16
2018-05-27T20:58:43.268Z,73.47
2018-05-27T21:01:10.744Z,72.08
2018-05-27T21:03:38.218Z,72.18
2018-05-27T21:06:05.664Z,71.70
2018-05-27T21:08:33.132Z,71.17
2018-05-27T21:11:00.582Z,70.44
2018-05-27T21:13:28.071Z,70.39
2018-05-27T21:15:55.523Z,71.03
2018-05-27T21:18:22.975Z,72.19
2018-05-27T21:20:50.458Z,73.10
2018-05-27T21:23:17.908Z,74.73
2018-05-27T21:25:45.388Z,72.20
2018-05-27T21:28:12.836Z,72.27
2018-05-27T21:30:40.364Z,73.18
2018-05-27T21:33:07.832Z,72.05
2018-05-27T21:35:35.292Z,72.34
2018-05-27T21:38:02.804Z,73.78
2018-05-27T21:40:30.260Z,76.32
2018-05-27T21:42:57.731Z,77.76
2018-05-27T21:45:25.252Z,78.45
2018-05-27T21:47:52.697Z,80.97
2018-05-27T21:50:20.149Z,80.43
2018-05-27T21:52:47.595Z,79.45
2018-05-27T21:55:15.083Z,78.65
2018-05-27T21:57:42.539Z,78.94
2018-05-27T22:00:10.016Z,79.16
2018-05-27T22:02:37.457Z,79.37
2018-05-27T22:05:04.933Z,78.92
2018-05-27T22:07:32.380Z,78.58
2018-05-27T22:09:59.823Z,78.66
2018-05-27T22:12:27.287Z,79.33
2018-05-27T22:14:54.773Z,79.80
2018-05-27T22:17:22.252Z,78.48
2018-05-27T22:19:49.707Z,78.00
2018-05-27T22:22:17.436Z,77.55
2018-05-27T22:24:44.879Z,77.64
2018-05-27T22:27:12.327Z,78.97
2018-05-27T22:29:39.805Z,79.89
2018-05-27T22:32:07.259Z,80.26
2018-05-27T22:34:34.742Z,81.43
2018-05-27T22:37:02.188Z,81.45
2018-05-27T22:39:29.790Z,80.34
2018-05-27T22:41:57.235Z,80.61
2018-05-27T22:44:24.679Z,80.85
2018-05-27T22:46:52.152Z,81.56
2018-05-27T22:49:19.616Z,80.29
2018-05-27T22:51:47.089Z,79.02
2018-05-27T22:54:14.551Z,77.93
2018-05-27T22:56:42.195Z,80.36
2018-05-27T22:59:09.651Z,80.38
2018-05-27T23:01:37.107Z,80.60
2018-05-27T23:04:04.573Z,81.27
2018-05-27T23:06:32.036Z,81.84
2018-05-27T23:08:59.508Z,81.52
2018-05-27T23:11:26.956Z,82.08
2018-05-27T23:13:54.456Z,82.05
2018-05-27T23:16:21.903Z,83.13
2018-05-27T23:18:49.355Z,83.00
2018-05-27T23:21:16.823Z,82.75
2018-05-27T23:23:44.277Z,83.44
2018-05-27T23:26:11.752Z,83.49
2018-05-27T23:28:39.204Z,83.00
2018-05-27T23:31:07.084Z,82.50
2018-05-27T23:33:34.528Z,82.65
2018-05-27T23:36:02.047Z,82.54
2018-05-27T23:38:29.477Z,83.17
2018-05-27T23:40:56.944Z,83.34
2018-05-27T23:43:24.431Z,83.13
2018-05-27T23:45:52.033Z,83.86
2018-05-27T23:48:19.536Z,83.74
2018-05-27T23:50:46.984Z,85.64
2018-05-27T23:53:14.471Z,85.46
2018-05-27T23:55:41.943Z,85.78
2018-05-27T23:58:09.383Z,86.73
